Time;durP1;ratioP1;P1;durP2;ratioP2;P2;SDS_P1;SDS_P2;PMS_P1;PMS_P2;Temp;Humidity;BMP_temperature;BMP_pressure;BME280_temperature;BME280_humidity;BME280_pressure;Samples;Min_cycle;Max_cycle;Signal;HPM_P1;HPM_P2
2022/05/28 00:00:38;;;;;;;8.08;6.45;;;;;;;16.53;100.00;100280.30;1680014;84;21135;-90
2022/05/28 00:03:06;;;;;;;7.70;7.00;;;;;;;16.52;100.00;100281.27;1672704;84;21342;-89
2022/05/28 00:05:33;;;;;;;9.80;7.17;;;;;;;16.50;100.00;100279.80;1685597;83;21185;-92
2022/05/28 00:08:01;;;;;;;7.50;6.53;;;;;;;16.46;100.00;100279.30;1656845;85;21073;-91
2022/05/28 00:10:29;;;;;;;8.93;6.35;;;;;;;16.43;100.00;100280.93;1686998;83;21152;-88
2022/05/28 00:12:58;;;;;;;7.22;6.15;;;;;;;16.40;100.00;100275.52;1687824;83;21406;-90
2022/05/28 00:15:27;;;;;;;8.88;6.45;;;;;;;16.38;100.00;100274.84;1656648;84;21070;-89
2022/05/28 00:17:54;;;;;;;6.92;6.33;;;;;;;16.38;100.00;100267.47;1687186;83;21069;-92
2022/05/28 00:20:22;;;;;;;8.35;6.12;;;;;;;16.35;100.00;100260.73;1687703;83;21063;-89
2022/05/28 00:22:49;;;;;;;6.65;5.92;;;;;;;16.31;100.00;100252.02;1656794;84;21006;-88
2022/05/28 00:25:19;;;;;;;6.80;6.20;;;;;;;16.28;100.00;100243.98;1687372;83;21801;-86
2022/05/28 00:27:48;;;;;;;6.25;5.70;;;;;;;16.26;100.00;100231.48;1687736;83;21051;-87
2022/05/28 00:30:18;;;;;;;6.83;6.10;;;;;;;16.24;100.00;100226.87;1656907;84;21550;-87
2022/05/28 00:32:45;;;;;;;6.70;6.00;;;;;;;16.20;100.00;100228.20;1659611;83;21104;-86
2022/05/28 00:35:17;;;;;;;6.55;5.70;;;;;;;16.18;100.00;100235.41;1687883;83;21111;-88
2022/05/28 00:37:46;;;;;;;7.33;6.12;;;;;;;16.16;100.00;100230.80;1652896;84;21534;-89
2022/05/28 00:40:18;;;;;;;6.28;5.67;;;;;;;16.13;100.00;100229.83;1660133;85;21565;-90
2022/05/28 00:42:46;;;;;;;6.45;5.53;;;;;;;16.11;100.00;100231.79;1685028;83;21051;-88
2022/05/28 00:45:15;;;;;;;7.05;5.42;;;;;;;16.09;100.00;100237.21;1656918;84;21563;-93
2022/05/28 00:47:47;;;;;;;10.20;5.78;;;;;;;16.09;100.00;100235.39;1659349;85;21079;-87
2022/05/28 00:50:16;;;;;;;6.72;6.05;;;;;;;16.09;100.00;100234.59;1682638;83;21881;-91
2022/05/28 00:52:45;;;;;;;5.83;5.22;;;;;;;16.07;100.00;100246.55;1656762;84;21080;-88
2022/05/28 00:55:17;;;;;;;6.10;5.58;;;;;;;16.07;100.00;100248.36;1687150;83;21416;-88
2022/05/28 00:57:45;;;;;;;5.67;5.05;;;;;;;16.07;100.00;100252.30;1687803;83;21043;-89
2022/05/28 01:00:17;;;;;;;6.30;5.58;;;;;;;16.06;100.00;100250.15;1656846;84;21590;-89
2022/05/28 01:03:00;;;;;;;6.90;5.60;;;;;;;16.05;100.00;100249.84;1683596;83;21852;-90
2022/05/28 01:05:38;;;;;;;7.60;5.67;;;;;;;16.05;100.00;100253.78;1682401;83;21048;-89
2022/05/28 01:08:16;;;;;;;5.87;5.28;;;;;;;16.02;100.00;100252.78;1660039;84;21070;-89
2022/05/28 01:11:08;;;;;;;5.67;4.87;;;;;;;16.00;100.00;100246.05;1686281;83;21035;-91
2022/05/28 01:13:54;;;;;;;7.17;5.28;;;;;;;15.98;100.00;100247.53;1637871;85;21471;-89
2022/05/28 01:16:37;;;;;;;5.72;5.20;;;;;;;15.97;100.00;100247.66;1686776;83;21066;-88
2022/05/28 01:19:22;;;;;;;6.08;4.95;;;;;;;15.94;100.00;100246.19;1687945;83;21032;-88
2022/05/28 01:22:17;;;;;;;5.92;5.33;;;;;;;15.89;100.00;100247.98;1651781;85;21068;-90
2022/05/28 01:25:10;;;;;;;6.20;5.03;;;;;;;15.89;100.00;100247.16;1683059;83;21029;-87
2022/05/28 01:27:43;;;;;;;7.58;4.80;;;;;;;15.88;100.00;100242.89;1673550;83;21612;-89
2022/05/28 01:30:14;;;;;;;5.62;5.08;;;;;;;15.86;100.00;100242.22;1657393;85;21520;-91
2022/05/28 01:32:46;;;;;;;6.50;4.95;;;;;;;15.84;100.00;100242.86;1687710;83;22002;-89
2022/05/28 01:35:17;;;;;;;5.62;5.12;;;;;;;15.83;100.00;100241.19;1637066;85;21006;-89
2022/05/28 01:37:48;;;;;;;5.72;5.12;;;;;;;15.82;100.00;100238.25;1687701;83;22234;-88
2022/05/28 01:40:18;;;;;;;5.37;4.83;;;;;;;15.79;100.00;100222.30;1687865;83;21660;-91
2022/05/28 01:42:51;;;;;;;6.72;4.80;;;;;;;15.76;100.00;100228.70;1656691;85;21244;-93
2022/05/28 01:45:21;;;;;;;5.90;4.40;;;;;;;15.74;100.00;100228.53;1684617;83;21657;-90
2022/05/28 01:47:51;;;;;;;5.03;4.50;;;;;;;15.69;100.00;100227.69;1687990;83;21169;-89
2022/05/28 01:50:22;;;;;;;5.05;4.60;;;;;;;15.64;100.00;100231.30;1656989;84;21563;-89
2022/05/28 01:52:53;;;;;;;5.20;4.70;;;;;;;15.61;100.00;100226.34;1683402;83;21065;-89
2022/05/28 01:55:25;;;;;;;6.72;4.35;;;;;;;15.58;100.00;100220.93;1688094;83;21825;-87
2022/05/28 01:57:54;;;;;;;5.42;4.58;;;;;;;15.56;100.00;100220.77;1656843;85;22115;-89
2022/05/28 02:00:21;;;;;;;4.50;4.10;;;;;;;15.53;100.00;100223.69;1687378;83;21052;-91
2022/05/28 02:02:53;;;;;;;6.42;4.70;;;;;;;15.51;100.00;100217.77;1687816;83;21012;-89
2022/05/28 02:05:22;;;;;;;6.15;5.00;;;;;;;15.49;100.00;100217.13;1654545;85;21086;-90
2022/05/28 02:07:51;;;;;;;6.05;4.42;;;;;;;15.48;100.00;100222.03;1663850;84;21256;-88
2022/05/28 02:10:22;;;;;;;4.95;4.42;;;;;;;15.46;100.00;100225.63;1663703;84;21078;-88
2022/05/28 02:13:08;;;;;;;6.55;4.60;;;;;;;15.44;100.00;100222.34;1683945;83;21574;-89
2022/05/28 02:15:53;;;;;;;7.40;4.25;;;;;;;15.45;100.00;100229.23;1661225;84;39564;-88
2022/05/28 02:18:42;;;;;;;5.87;4.35;;;;;;;15.47;100.00;100226.44;1661563;84;21042;-88
2022/05/28 02:21:27;;;;;;;5.05;4.53;;;;;;;15.49;100.00;100213.19;1681059;84;21827;-89
2022/05/28 02:24:03;;;;;;;4.97;4.47;;;;;;;15.53;100.00;100214.03;1679668;83;21062;-88
2022/05/28 02:26:35;;;;;;;5.95;4.37;;;;;;;15.57;100.00;100256.52;1679606;83;21039;-90
2022/05/28 02:29:04;;;;;;;4.42;4.03;;;;;;;15.59;100.00;100297.84;1679666;83;21061;-90
2022/05/28 02:31:33;;;;;;;4.50;4.08;;;;;;;15.59;100.00;100302.63;1681906;83;21661;-92
2022/05/28 02:34:02;;;;;;;5.45;4.30;;;;;;;15.64;100.00;100303.47;1681851;83;21214;-91
2022/05/28 02:36:31;;;;;;;5.15;4.28;;;;;;;15.69;100.00;100309.56;1681640;83;21653;-91
2022/05/28 02:38:59;;;;;;;5.17;4.20;;;;;;;15.74;100.00;100312.02;1682060;83;21156;-91
2022/05/28 02:41:28;;;;;;;5.03;4.30;;;;;;;15.80;100.00;100311.89;1681585;83;20991;-93
2022/05/28 02:43:55;;;;;;;5.37;3.95;;;;;;;15.85;100.00;100315.39;1681745;83;21165;-90
2022/05/28 02:46:22;;;;;;;5.37;4.20;;;;;;;15.90;100.00;100323.64;1681773;83;21130;-90
2022/05/28 02:48:50;;;;;;;7.30;4.75;;;;;;;15.94;100.00;100324.95;1681818;83;21129;-91
2022/05/28 02:51:20;;;;;;;6.33;4.85;;;;;;;15.95;100.00;100320.05;1681833;83;21128;-89
2022/05/28 02:53:50;;;;;;;11.08;5.50;;;;;;;15.96;100.00;100319.54;1681879;83;21043;-92
2022/05/28 02:56:19;;;;;;;6.03;5.37;;;;;;;15.97;100.00;100325.97;1681766;83;21089;-88
2022/05/28 02:58:47;;;;;;;8.03;6.03;;;;;;;16.01;100.00;100323.34;1681866;83;21809;-90
2022/05/28 03:01:26;;;;;;;8.48;5.62;;;;;;;16.05;100.00;100321.22;1682080;83;21706;-91
2022/05/28 03:03:56;;;;;;;5.60;5.00;;;;;;;16.09;100.00;100324.69;1681880;83;21054;-91
2022/05/28 03:06:23;;;;;;;6.40;4.92;;;;;;;16.13;100.00;100329.64;1695520;82;21108;-89
2022/05/28 03:08:51;;;;;;;5.35;4.70;;;;;;;16.17;100.00;100321.76;1704532;82;21124;-89
2022/05/28 03:11:19;;;;;;;5.12;4.45;;;;;;;16.22;100.00;100324.75;1704662;82;21156;-91
2022/05/28 03:13:47;;;;;;;6.58;4.87;;;;;;;16.26;100.00;100319.49;1704720;82;21574;-90
2022/05/28 03:16:15;;;;;;;6.30;4.85;;;;;;;16.30;100.00;100318.20;1679078;82;21522;-91
2022/05/28 03:18:42;;;;;;;5.05;4.50;;;;;;;16.34;100.00;100317.39;1705016;82;20993;-90
2022/05/28 03:21:09;;;;;;;6.15;4.78;;;;;;;16.36;100.00;100318.87;1704687;82;21084;-88
2022/05/28 03:23:37;;;;;;;7.25;4.50;;;;;;;16.40;100.00;100315.43;1704724;82;21881;-88
2022/05/28 03:26:18;;;;;;;6.42;5.20;;;;;;;16.42;100.00;100304.27;1704590;82;21057;-87
2022/05/28 03:28:46;;;;;;;6.58;5.37;;;;;;;16.46;100.00;100303.45;1704622;82;21590;-87
2022/05/28 03:31:13;;;;;;;6.00;4.75;;;;;;;16.51;100.00;100297.22;1704549;82;21569;-88
2022/05/28 03:33:43;;;;;;;7.70;5.03;;;;;;;16.55;100.00;100298.05;1704660;82;21036;-87
2022/05/28 03:36:11;;;;;;;6.80;5.60;;;;;;;16.59;100.00;100296.39;1704927;82;21300;-88
2022/05/28 03:38:39;;;;;;;7.25;6.55;;;;;;;16.61;100.00;100291.80;1704875;82;21042;-87
2022/05/28 03:41:07;;;;;;;7.33;5.62;;;;;;;16.64;100.00;100304.63;1704440;82;21084;-89
2022/05/28 03:43:36;;;;;;;7.58;5.97;;;;;;;16.64;100.00;100301.49;1704642;82;21075;-87
2022/05/28 03:46:04;;;;;;;8.38;6.10;;;;;;;16.68;100.00;100294.94;1704702;82;21129;-88
2022/05/28 03:48:33;;;;;;;9.28;6.12;;;;;;;16.71;100.00;100295.91;1704795;82;21149;-88
2022/05/28 03:51:00;;;;;;;7.70;6.67;;;;;;;16.77;100.00;100294.95;1704522;82;21124;-88
2022/05/28 03:53:28;;;;;;;9.70;6.97;;;;;;;16.81;100.00;100285.73;1704895;82;21104;-90
2022/05/28 03:55:56;;;;;;;12.68;8.58;;;;;;;16.86;100.00;100284.26;1704726;83;21077;-88
2022/05/28 03:58:23;;;;;;;8.95;7.97;;;;;;;16.94;100.00;100282.64;1704993;82;21209;-86
2022/05/28 04:00:51;;;;;;;14.28;10.72;;;;;;;17.05;100.00;100291.52;1704376;82;21193;-85
2022/05/28 04:03:18;;;;;;;13.70;10.72;;;;;;;17.13;100.00;100305.14;1689666;83;21048;-89
2022/05/28 04:05:47;;;;;;;14.30;11.15;;;;;;;17.18;100.00;100308.12;1707593;82;21124;-89
2022/05/28 04:08:14;;;;;;;13.40;10.48;;;;;;;17.21;100.00;100305.14;1707757;82;21088;-89
2022/05/28 04:10:41;;;;;;;14.90;11.50;;;;;;;17.24;100.00;100308.77;1707885;82;21021;-87
2022/05/28 04:13:10;;;;;;;13.05;10.88;;;;;;;17.25;100.00;100309.09;1707762;82;21227;-88
2022/05/28 04:15:37;;;;;;;10.98;9.70;;;;;;;17.25;100.00;100314.36;1707585;82;21033;-89
2022/05/28 04:18:07;;;;;;;12.20;9.68;;;;;;;17.28;100.00;100309.25;1708102;82;21084;-89
2022/05/28 04:20:35;;;;;;;13.15;9.15;;;;;;;17.38;100.00;100310.38;1703615;82;21089;-89
2022/05/28 04:23:02;;;;;;;14.63;10.10;;;;;;;17.50;100.00;100309.05;1707691;82;21108;-91
2022/05/28 04:25:30;;;;;;;17.75;12.13;;;;;;;17.63;100.00;100307.18;1707673;82;21215;-90
2022/05/28 04:27:57;;;;;;;17.05;11.88;;;;;;;17.72;100.00;100305.36;1707814;82;21041;-90
2022/05/28 04:30:24;;;;;;;16.40;10.82;;;;;;;17.78;100.00;100311.25;1707742;82;21648;-90
2022/05/28 04:32:53;;;;;;;13.48;10.18;;;;;;;17.85;100.00;100308.77;1679987;82;21210;-90
2022/05/28 04:35:20;;;;;;;12.73;11.22;;;;;;;17.95;100.00;100309.37;1708061;82;21131;-89
2022/05/28 04:37:49;;;;;;;13.10;9.95;;;;;;;18.03;100.00;100305.41;1707803;82;21077;-92
2022/05/28 04:40:16;;;;;;;15.10;10.98;;;;;;;18.07;100.00;100307.20;1707562;82;21064;-93
2022/05/28 04:42:44;;;;;;;23.30;10.72;;;;;;;18.13;100.00;100310.49;1707933;82;21025;-89
2022/05/28 04:45:11;;;;;;;13.10;10.03;;;;;;;18.20;100.00;100311.92;1707654;82;21064;-93
2022/05/28 04:47:39;;;;;;;14.23;10.78;;;;;;;18.28;100.00;100316.67;1707784;82;21164;-94
2022/05/28 04:50:10;;;;;;;13.72;11.40;;;;;;;18.37;100.00;100316.11;1707643;82;21064;-92
2022/05/28 04:52:39;;;;;;;14.00;11.38;;;;;;;18.41;100.00;100318.73;1707746;82;21139;-92
2022/05/28 04:55:09;;;;;;;14.45;11.25;;;;;;;18.43;100.00;100320.68;1707505;82;21037;-90
2022/05/28 04:57:36;;;;;;;16.25;12.05;;;;;;;18.43;100.00;100322.00;1679739;82;21041;-92
2022/05/28 05:00:10;;;;;;;13.88;11.60;;;;;;;18.45;100.00;100327.12;1707509;82;21534;-92
2022/05/28 05:02:39;;;;;;;13.72;10.82;;;;;;;18.48;100.00;100324.11;1705053;82;21802;-90
2022/05/28 05:05:08;;;;;;;8.03;7.22;;;;;;;18.51;100.00;100322.45;1677621;83;21549;-91
2022/05/28 05:07:36;;;;;;;12.60;7.53;;;;;;;18.53;100.00;100324.43;1663680;84;21052;-90
2022/05/28 05:10:04;;;;;;;8.00;6.50;;;;;;;18.53;100.00;100327.55;1662207;84;21029;-92
2022/05/28 05:12:33;;;;;;;9.00;6.67;;;;;;;18.54;100.00;100326.08;1671575;82;21093;-91
2022/05/28 05:15:02;;;;;;;8.25;6.62;;;;;;;18.56;100.00;100330.66;1678204;84;21018;-91
2022/05/28 05:17:30;;;;;;;9.90;6.60;;;;;;;18.55;100.00;100322.93;1686133;83;21501;-92
2022/05/28 05:19:58;;;;;;;8.08;7.08;;;;;;;18.53;100.00;100335.45;1687016;83;21074;-93
2022/05/28 05:22:25;;;;;;;7.03;6.33;;;;;;;18.48;100.00;100335.17;1688110;84;21086;-91
2022/05/28 05:24:52;;;;;;;7.37;6.58;;;;;;;18.46;100.00;100334.03;1686954;83;21216;-90
2022/05/28 05:27:20;;;;;;;7.30;6.35;;;;;;;18.55;100.00;100334.79;1682424;83;22116;-87
2022/05/28 05:29:47;;;;;;;7.87;7.08;;;;;;;18.73;100.00;100338.45;1688332;84;21030;-88
2022/05/28 05:32:14;;;;;;;10.90;7.28;;;;;;;18.96;100.00;100335.02;1687595;84;21042;-88
2022/05/28 05:34:45;;;;;;;8.85;7.95;;;;;;;19.18;100.00;100338.15;1686755;83;21037;-90
2022/05/28 05:37:12;;;;;;;10.50;9.30;;;;;;;19.31;100.00;100343.30;1685878;83;21053;-89
2022/05/28 05:39:40;;;;;;;12.28;9.10;;;;;;;19.39;100.00;100335.30;1691551;82;21139;-90
2022/05/28 05:42:08;;;;;;;12.33;9.00;;;;;;;19.46;100.00;100339.38;1672884;83;21027;-89
2022/05/28 05:44:35;;;;;;;10.98;9.45;;;;;;;19.52;100.00;100343.41;1661683;84;21088;-90
2022/05/28 05:47:05;;;;;;;13.85;9.73;;;;;;;19.54;100.00;100346.70;1661202;84;20985;-89
2022/05/28 05:49:33;;;;;;;10.55;8.25;;;;;;;19.57;100.00;100342.06;1661207;84;21096;-90
2022/05/28 05:52:04;;;;;;;12.40;9.25;;;;;;;19.62;100.00;100347.12;1661715;84;21017;-90
2022/05/28 05:54:31;;;;;;;11.78;8.98;;;;;;;19.67;100.00;100351.84;1662013;84;21082;-92
2022/05/28 05:56:59;;;;;;;10.45;9.35;;;;;;;19.62;100.00;100355.05;1662255;84;21077;-91
2022/05/28 05:59:27;;;;;;;12.68;9.40;;;;;;;19.55;100.00;100356.27;1662316;86;21046;-90
2022/05/28 06:01:54;;;;;;;10.72;9.45;;;;;;;19.49;100.00;100353.52;1662352;84;21088;-90
2022/05/28 06:04:21;;;;;;;13.00;8.13;;;;;;;19.42;100.00;100353.44;1662471;84;21101;-91
2022/05/28 06:06:48;;;;;;;6.60;5.10;;;;;;;19.34;100.00;100352.19;1656340;84;21017;-91
2022/05/28 06:09:17;;;;;;;4.62;4.10;;;;;;;19.33;100.00;100353.19;1645371;84;21077;-90
2022/05/28 06:11:46;;;;;;;4.30;3.80;;;;;;;19.43;100.00;100356.37;1672902;84;21022;-91
2022/05/28 06:14:14;;;;;;;4.28;3.75;;;;;;;19.56;100.00;100353.11;1670540;84;21586;-89
2022/05/28 06:16:42;;;;;;;4.15;3.72;;;;;;;19.58;100.00;100347.67;1661160;84;21162;-90
2022/05/28 06:19:09;;;;;;;4.35;3.95;;;;;;;19.64;100.00;100348.26;1661035;84;21017;-89
2022/05/28 06:21:37;;;;;;;5.90;4.20;;;;;;;19.69;100.00;100348.03;1660774;84;21101;-91
2022/05/28 06:24:04;;;;;;;3.98;3.67;;;;;;;19.75;100.00;100346.46;1670084;84;21106;-88
2022/05/28 06:26:32;;;;;;;3.60;3.30;;;;;;;19.73;100.00;100336.61;1669120;84;21089;-90
2022/05/28 06:28:59;;;;;;;3.62;3.33;;;;;;;19.70;100.00;100331.67;1666742;84;21228;-90
2022/05/28 06:31:28;;;;;;;3.40;3.10;;;;;;;19.70;100.00;100314.51;1668141;84;21022;-90
2022/05/28 06:33:56;;;;;;;4.45;3.83;;;;;;;19.76;100.00;100317.73;1669001;84;21077;-90
2022/05/28 06:36:23;;;;;;;8.60;5.28;;;;;;;19.98;100.00;100325.78;1670928;84;21071;-88
2022/05/28 06:38:50;;;;;;;7.95;4.72;;;;;;;20.17;100.00;100335.75;1669816;84;21023;-89
2022/05/28 06:41:18;;;;;;;7.78;5.50;;;;;;;20.34;100.00;100335.53;1669608;84;21149;-89
2022/05/28 06:43:46;;;;;;;7.35;5.05;;;;;;;20.46;100.00;100335.37;1668385;84;21033;-89
2022/05/28 06:46:15;;;;;;;4.60;4.20;;;;;;;20.55;100.00;100337.39;1639811;85;21106;-90
2022/05/28 06:48:42;;;;;;;4.70;4.25;;;;;;;20.59;100.00;100346.57;1649440;84;21105;-90
2022/05/28 06:51:10;;;;;;;8.43;5.10;;;;;;;20.54;100.00;100350.30;1631261;85;21072;-90
2022/05/28 06:53:47;;;;;;;5.83;5.22;;;;;;;20.47;100.00;100346.25;1666519;84;21113;-89
2022/05/28 06:56:16;;;;;;;5.22;4.65;;;;;;;20.41;100.00;100343.55;1667881;84;21049;-90
2022/05/28 06:58:44;;;;;;;5.30;4.80;;;;;;;20.40;100.00;100349.33;1669112;84;21029;-88
2022/05/28 07:01:16;;;;;;;5.40;4.90;;;;;;;20.43;100.00;100351.61;1655946;85;21033;-90
2022/05/28 07:03:44;;;;;;;10.95;8.75;;;;;;;20.59;100.00;100358.99;1679629;83;21098;-89
2022/05/28 07:06:12;;;;;;;8.08;7.15;;;;;;;20.80;100.00;100361.67;1667595;84;21785;-89
2022/05/28 07:08:40;;;;;;;9.55;7.75;;;;;;;20.96;100.00;100363.25;1669903;84;21448;-89
2022/05/28 07:11:09;;;;;;;7.78;6.95;;;;;;;21.10;100.00;100354.09;1671114;85;21110;-89
2022/05/28 07:13:37;;;;;;;8.05;7.22;;;;;;;21.21;100.00;100358.87;1672605;84;21136;-89
2022/05/28 07:16:07;;;;;;;6.10;5.50;;;;;;;21.30;100.00;100366.16;1647243;84;21116;-91
2022/05/28 07:18:39;;;;;;;4.65;4.20;;;;;;;21.42;100.00;100365.13;1645419;85;21374;-89
2022/05/28 07:21:08;;;;;;;4.30;4.00;;;;;;;21.54;100.00;100366.73;1645346;85;21026;-89
2022/05/28 07:23:37;;;;;;;7.65;5.47;;;;;;;21.72;100.00;100356.50;1645464;85;21116;-89
2022/05/28 07:26:09;;;;;;;6.37;5.78;;;;;;;21.91;100.00;100354.16;1645120;85;21565;-89
2022/05/28 07:28:39;;;;;;;7.47;6.55;;;;;;;22.12;100.00;100355.05;1645279;85;21515;-89
2022/05/28 07:31:11;;;;;;;10.75;7.45;;;;;;;22.30;100.00;100354.00;1645273;85;21319;-90
2022/05/28 07:33:42;;;;;;;6.62;5.80;;;;;;;22.34;100.00;100349.11;1666219;84;21601;-89
2022/05/28 07:36:15;;;;;;;12.65;6.47;;;;;;;22.21;100.00;100341.93;1678531;84;21513;-88
2022/05/28 07:38:43;;;;;;;11.03;6.53;;;;;;;22.12;100.00;100337.29;1672397;84;21128;-88
2022/05/28 07:41:20;;;;;;;11.38;8.68;;;;;;;22.18;100.00;100347.12;1680313;84;21630;-88
2022/05/28 07:43:50;;;;;;;11.22;8.38;;;;;;;22.41;100.00;100361.08;1646402;83;21762;-88
2022/05/28 07:46:28;;;;;;;9.80;8.33;;;;;;;22.58;100.00;100370.31;1640302;84;22169;-88
2022/05/28 07:49:00;;;;;;;10.25;6.92;;;;;;;22.70;100.00;100366.55;1672508;82;21088;-94
2022/05/28 07:51:28;;;;;;;7.92;6.15;;;;;;;22.77;100.00;100361.27;1667934;84;21050;-89
2022/05/28 07:53:55;;;;;;;6.37;5.20;;;;;;;22.82;100.00;100354.84;1670352;83;21065;-87
2022/05/28 07:56:23;;;;;;;5.65;5.08;;;;;;;22.98;100.00;100366.91;1670411;84;21263;-87
2022/05/28 07:59:00;;;;;;;4.70;4.30;;;;;;;23.19;100.00;100371.73;1668224;84;21018;-88
2022/05/28 08:01:31;;;;;;;4.70;3.90;;;;;;;23.38;100.00;100370.08;1669381;84;21102;-88
2022/05/28 08:04:10;;;;;;;15.00;13.48;;;;;;;23.52;100.00;100370.36;1672069;84;21060;-87
2022/05/28 08:06:39;;;;;;;7.92;6.58;;;;;;;23.54;100.00;100366.99;1670305;84;21142;-87
2022/05/28 08:09:12;;;;;;;4.80;3.47;;;;;;;23.50;100.00;100371.59;1670101;84;21149;-88
2022/05/28 08:11:39;;;;;;;2.83;2.60;;;;;;;23.33;100.00;100375.20;1645055;85;21018;-90
2022/05/28 08:14:07;;;;;;;7.30;3.02;;;;;;;23.03;100.00;100378.25;1663604;84;21093;-87
2022/05/28 08:16:35;;;;;;;3.00;2.62;;;;;;;22.82;100.00;100381.38;1658236;84;21539;-87
2022/05/28 08:19:02;;;;;;;3.17;2.30;;;;;;;22.67;100.00;100389.02;1676894;84;21980;-86
2022/05/28 08:24:15;;;;;;;2.65;2.05;;;;;;;22.51;100.00;100387.53;1647411;84;21113;-87
2022/05/28 08:26:42;;;;;;;2.72;1.98;;;;;;;22.42;100.00;100393.22;1669089;84;21128;-89
2022/05/28 08:29:11;;;;;;;2.75;2.27;;;;;;;22.30;100.00;100390.30;1685590;83;21042;-88
2022/05/28 08:31:40;;;;;;;2.47;2.05;;;;;;;22.20;100.00;100388.83;1676356;82;21102;-91
2022/05/28 08:34:07;;;;;;;2.05;1.85;;;;;;;22.12;100.00;100385.53;1676146;83;21125;-90
2022/05/28 08:36:35;;;;;;;4.67;2.22;;;;;;;21.98;100.00;100385.48;1660693;84;21066;-89
2022/05/28 08:39:03;;;;;;;3.60;2.08;;;;;;;21.78;100.00;100393.81;1677923;83;21544;-88
2022/05/28 08:41:48;;;;;;;2.92;1.70;;;;;;;21.59;100.00;100393.00;1678141;82;21111;-87
2022/05/28 08:44:28;;;;;;;2.00;1.60;;;;;;;21.38;100.00;100399.13;1673162;83;21051;-90
2022/05/28 08:47:21;;;;;;;1.92;1.72;;;;;;;21.08;100.00;100418.31;1678760;83;21163;-87
2022/05/28 08:49:51;;;;;;;3.60;1.52;;;;;;;20.81;100.00;100418.06;1677437;84;21064;-90
2022/05/28 08:52:29;;;;;;;1.37;1.27;;;;;;;20.58;100.00;100412.89;1673461;83;21463;-89
2022/05/28 08:55:19;;;;;;;3.25;1.35;;;;;;;20.36;100.00;100417.30;1653430;84;21035;-89
2022/05/28 08:57:59;;;;;;;1.10;1.00;;;;;;;19.99;100.00;100411.98;1661986;84;21058;-88
2022/05/28 09:00:51;;;;;;;0.87;0.80;;;;;;;19.68;100.00;100412.91;1671361;84;21273;-87
2022/05/28 09:03:25;;;;;;;3.27;1.00;;;;;;;19.56;100.00;100412.52;1668994;84;21134;-88
2022/05/28 09:06:06;;;;;;;0.80;0.80;;;;;;;19.38;100.00;100423.42;1653258;85;21157;-88
2022/05/28 09:08:38;;;;;;;2.53;1.17;;;;;;;19.22;100.00;100416.47;1674547;83;21594;-87
2022/05/28 09:11:13;;;;;;;20.88;5.25;;;;;;;19.20;100.00;100417.94;1683048;83;21269;-88
2022/05/28 09:13:51;;;;;;;2.77;1.10;;;;;;;19.37;100.00;100433.66;1684244;83;21158;-88
2022/05/28 09:16:31;;;;;;;1.45;0.98;;;;;;;19.41;100.00;100434.95;1689435;83;21151;-88
2022/05/28 09:19:16;;;;;;;1.00;0.90;;;;;;;19.43;100.00;100432.94;1684440;83;21573;-88
2022/05/28 09:21:45;;;;;;;32.78;7.78;;;;;;;19.44;100.00;100433.26;1682296;83;21102;-90
2022/05/28 09:24:23;;;;;;;;;;;;;;;19.32;100.00;100430.73;1687024;83;21676;-88
2022/05/28 09:27:15;;;;;;;26.80;6.75;;;;;;;19.02;100.00;100439.36;1683702;83;21151;-87
2022/05/28 09:30:15;;;;;;;8.90;2.00;;;;;;;18.71;100.00;100447.25;1687534;83;21021;-88
2022/05/28 09:33:32;;;;;;;33.85;8.23;;;;;;;18.43;100.00;100448.53;1680304;83;21133;-89
2022/05/28 09:36:04;;;;;;;36.65;8.13;;;;;;;18.40;100.00;100445.41;1678853;83;21554;-89
2022/05/28 09:39:08;;;;;;;4.45;1.77;;;;;;;18.43;100.00;100447.72;1677899;83;21598;-88
2022/05/28 09:41:52;;;;;;;6.60;1.55;;;;;;;18.44;100.00;100451.50;1636743;84;21151;-91
2022/05/28 09:44:52;;;;;;;4.53;1.05;;;;;;;18.50;100.00;100435.50;1673281;85;21133;-88
2022/05/28 09:47:20;;;;;;;1.30;0.93;;;;;;;18.72;100.00;100444.45;1651058;85;21106;-84
2022/05/28 09:49:57;;;;;;;51.13;11.30;;;;;;;18.94;100.00;100454.43;1726723;81;21815;-85
2022/05/28 09:54:16;;;;;;;51.13;10.95;;;;;;;19.06;100.00;100456.50;1733765;81;21088;-84
2022/05/28 09:55:24;;;;;;;53.75;9.65;;;;;;;19.07;100.00;100459.43;1731993;81;21148;-85
2022/05/28 09:57:59;;;;;;;47.48;10.35;;;;;;;19.07;100.00;100459.94;1738463;81;21140;-84
2022/05/28 10:00:27;;;;;;;15.72;4.12;;;;;;;19.11;100.00;100465.18;1722967;81;21059;-84
2022/05/28 10:05:55;;;;;;;36.15;9.13;;;;;;;18.84;100.00;100471.27;1680105;84;21085;-83
2022/05/28 10:08:31;;;;;;;12.33;3.30;;;;;;;18.74;100.00;100480.72;1712724;81;21273;-83
2022/05/28 10:11:09;;;;;;;2.20;1.20;;;;;;;18.69;100.00;100474.31;1746793;80;21021;-86
2022/05/28 10:13:52;;;;;;;1.10;1.00;;;;;;;18.62;100.00;100470.72;1744471;81;21104;-85
2022/05/28 10:16:37;;;;;;;1.50;1.00;;;;;;;18.51;100.00;100468.78;1741869;81;20988;-84
2022/05/28 10:19:25;;;;;;;1.12;0.93;;;;;;;18.48;100.00;100470.94;1740213;80;21099;-84
2022/05/28 10:21:59;;;;;;;2.52;1.50;;;;;;;18.42;100.00;100466.69;1734232;81;21167;-83
2022/05/28 10:24:47;;;;;;;1.10;1.00;;;;;;;18.43;100.00;100462.22;1695274;83;21069;-85
2022/05/28 10:27:34;;;;;;;2.25;1.15;;;;;;;18.52;100.00;100461.20;1692592;82;21057;-85
2022/05/28 10:30:07;;;;;;;1.85;1.50;;;;;;;18.68;100.00;100466.07;1692565;83;21061;-86
2022/05/28 10:32:39;;;;;;;1.62;1.50;;;;;;;18.76;100.00;100466.03;1671766;83;21057;-87
2022/05/28 10:35:18;;;;;;;2.27;1.95;;;;;;;18.82;100.00;100460.56;1667461;84;21093;-84
2022/05/28 10:37:48;;;;;;;2.77;2.27;;;;;;;18.81;100.00;100456.28;1688570;84;21075;-84
2022/05/28 10:40:22;;;;;;;1.98;1.62;;;;;;;18.79;100.00;100449.84;1695366;83;21120;-84
2022/05/28 10:43:04;;;;;;;1.67;1.40;;;;;;;18.76;100.00;100448.89;1661008;84;21026;-85
2022/05/28 10:45:40;;;;;;;1.57;1.47;;;;;;;18.70;100.00;100454.35;1684504;83;21075;-84
2022/05/28 10:48:30;;;;;;;1.67;1.57;;;;;;;18.64;100.00;100458.16;1661901;84;21539;-84
2022/05/28 10:51:29;;;;;;;2.37;2.17;;;;;;;18.62;100.00;100460.98;1636518;86;21076;-87
2022/05/28 10:54:32;;;;;;;3.90;2.72;;;;;;;18.67;100.00;100453.36;1640014;86;21568;-83
2022/05/28 10:57:33;;;;;;;2.02;1.82;;;;;;;18.81;100.00;100451.81;1647114;86;21061;-85
2022/05/28 11:00:24;;;;;;;2.30;1.95;;;;;;;18.98;100.00;100450.43;1639992;85;22244;-85
2022/05/28 11:03:33;;;;;;;5.00;2.10;;;;;;;18.98;100.00;100449.95;1664844;84;21137;-85
2022/05/28 11:06:49;;;;;;;3.50;1.80;;;;;;;18.85;100.00;100449.17;1666362;84;21148;-84
2022/05/28 11:09:38;;;;;;;2.05;1.85;;;;;;;18.74;100.00;100445.59;1631444;85;21610;-85
2022/05/28 11:12:31;;;;;;;2.42;2.22;;;;;;;18.73;100.00;100446.11;1652828;85;21058;-85
2022/05/28 11:15:07;;;;;;;2.30;2.10;;;;;;;18.78;100.00;100452.18;1667220;84;21558;-84
2022/05/28 11:17:53;;;;;;;2.35;1.80;;;;;;;18.89;100.00;100453.09;1670028;84;21547;-83
2022/05/28 11:20:38;;;;;;;3.40;1.70;;;;;;;18.99;100.00;100460.00;1669717;84;21107;-84
2022/05/28 11:23:14;;;;;;;2.95;1.70;;;;;;;19.01;100.00;100461.97;1651413;84;21097;-83
2022/05/28 11:26:01;;;;;;;1.92;1.80;;;;;;;19.03;100.00;100462.59;1640534;85;21048;-84
2022/05/28 11:29:12;;;;;;;2.67;1.92;;;;;;;18.96;100.00;100459.02;1645516;84;21053;-84
2022/05/28 11:31:50;;;;;;;5.00;1.70;;;;;;;18.88;100.00;100456.72;1652204;82;21754;-84
2022/05/28 11:34:21;;;;;;;2.83;1.82;;;;;;;18.97;100.00;100453.58;1695849;82;21049;-86
2022/05/28 11:37:01;;;;;;;;;;;;;;;19.18;100.00;100454.75;1703429;82;21040;-87
2022/05/28 11:39:43;;;;;;;1.75;1.60;;;;;;;19.35;100.00;100454.96;1654662;83;20202;-84
2022/05/28 11:42:36;;;;;;;2.15;1.95;;;;;;;19.41;100.00;100446.00;1668628;84;21077;-84
2022/05/28 11:45:09;;;;;;;3.08;1.98;;;;;;;19.42;100.00;100440.56;1670425;84;21815;-84
2022/05/28 11:48:13;;;;;;;3.80;2.10;;;;;;;19.43;100.00;100443.49;1672541;84;21089;-85